Koeimaru — JD3362 — position and weather

sailwx.info

Track history (hours):
 
Tides and Currents Weather Stations Pressure Air Temp Water Temp Dewpoint Dewpoint Depression Visibility Wind Speed Wind Dir Waves Ship Positions

Koeimaru

Last reported at 2018-Feb-18 02:20 UTC. Time now 2018-Feb-19 07:51 UTC.
Position N 33°37' E 130°03'.

Length 64 m; draft 4 m.

Type: Cargo ship. MMSI: 431003512.

Date/timePositionNaut miles runAvg speedWind from/ knotsBaromVisibWave heightAir tempDewpointWater temp
2018-Feb-18 02:20N 33°37' E 130°03'510.8
2018-Feb-18 01:51N 33°40' E 130°09'411.0
2018-Feb-18 01:30N 33°42' E 130°12'611.3
2018-Feb-18 01:00N 33°46' E 130°17'611.2
2018-Feb-18 00:30N 33°50' E 130°23'611.1
2018-Feb-18 00:01N 33°53' E 130°27'611.1
2018-Feb-17 23:30N 33°57' E 130°33'611.9
2018-Feb-17 23:00N 33°57' E 130°40'611.8
2018-Feb-17 22:30N 33°58' E 130°47'510.5
2018-Feb-17 22:00N 33°56' E 130°53'3 5.7
2018-Feb-17 21:30N 33°56' E 130°56'4 7.5
2018-Feb-17 21:01N 33°59' E 130°60'5 9.7
2018-Feb-17 20:31N 33°57' E 131°05'1 3.0
2018-Feb-17 20:00N 33°56' E 131°07'1 2.5
2018-Feb-17 19:31N 33°55' E 131°08'4 7.2
2018-Feb-17 19:00N 33°53' E 131°12'4 8.6
2018-Feb-17 18:31N 33°52' E 131°16'510.4
2018-Feb-17 18:01N 33°51' E 131°23'510.7
2018-Feb-17 17:30N 33°50' E 131°29'510.6
2018-Feb-17 17:00N 33°49' E 131°35'510.3
2018-Feb-17 16:30N 33°48' E 131°41'1710.6
2018-Feb-17 14:55N 33°46' E 132°01'1211.2
2018-Feb-17 13:52N 33°50' E 132°14'411.0
2018-Feb-17 13:30N 33°50' E 132°19'17 9.7
2018-Feb-17 11:42N 34°00' E 132°36'310.4
2018-Feb-17 11:24N 34°02' E 132°39'92 8.7
2018-Feb-17 00:49N 34°18' E 134°29'2910.0
2018-Feb-16 21:57N 33°59' E 134°55'125 5.6
2018-Feb-15 23:30N 34°44' E 137°16'711.5
2018-Feb-15 22:55N 34°42' E 137°09'87 8.2
2018-Feb-15 12:20N 34°36' E 138°54'4 8.3
2018-Feb-15 11:48N 34°38' E 138°59'4 9.6
2018-Feb-15 11:25N 34°41' E 139°01'25 9.5
2018-Feb-15 08:48N 34°60' E 139°21'11 9.3
2018-Feb-15 07:36N 35°05' E 139°34'110.6
2018-Feb-15 07:30N 35°05' E 139°35'611.0
2018-Feb-15 06:59N 35°07' E 139°41'510.8
2018-Feb-15 06:30N 35°11' E 139°45'5 9.6
2018-Feb-15 06:00N 35°16' E 139°45'510.8
2018-Feb-15 05:30N 35°21' E 139°41'2 3.9
2018-Feb-15 05:00N 35°22' E 139°40'0 0.0
2018-Feb-15 04:30N 35°22' E 139°40'0 0.0
2018-Feb-15 04:00N 35°22' E 139°40'0 0.0
2018-Feb-15 03:30N 35°22' E 139°40'0 0.0
2018-Feb-15 03:00N 35°22' E 139°40'0 0.0
2018-Feb-15 02:30N 35°22' E 139°40'0 0.0
2018-Feb-15 02:00N 35°22' E 139°40'0 0.0
2018-Feb-15 01:30N 35°22' E 139°40'0 0.0
2018-Feb-15 01:00N 35°22' E 139°40'0 0.0
2018-Feb-15 00:30N 35°22' E 139°40'0 0.0
2018-Feb-15 00:01N 35°22' E 139°40'0 0.0
2018-Feb-14 23:30N 35°22' E 139°40'0 0.1
2018-Feb-14 23:00N 35°22' E 139°40'4 9.0
2018-Feb-14 22:31N 35°25' E 139°44'611.8
2018-Feb-14 22:01N 35°29' E 139°49'811.3
2018-Feb-14 21:18N 35°35' E 139°56'411.2
2018-Feb-14 20:58N 35°38' E 139°59'0 0.0
2018-Feb-14 05:29N 35°39' E 139°58'1 1.5
2018-Feb-14 05:00N 35°38' E 139°59'0 0.0
2018-Feb-14 04:30N 35°38' E 139°59'0 0.0
2018-Feb-14 04:00N 35°38' E 139°59'0 0.0
2018-Feb-14 03:28N 35°38' E 139°59'0 0.0
2018-Feb-14 02:57N 35°38' E 139°59'0 0.1
2018-Feb-14 02:28N 35°38' E 139°58'0 0.0
2018-Feb-14 01:55N 35°38' E 139°58'0 0.0
2018-Feb-14 00:36N 35°38' E 139°58'0 0.5
2018-Feb-14 00:30N 35°38' E 139°59'3 5.5
2018-Feb-13 23:59N 35°41' E 139°59'0 0.2
2018-Feb-13 23:26N 35°41' E 139°59'0 0.0
2018-Feb-13 22:52N 35°41' E 139°59'0 0.0
2018-Feb-13 22:29N 35°41' E 139°59'0 0.0
2018-Feb-13 21:53N 35°41' E 139°59'0 0.0
2018-Feb-13 21:17N 35°41' E 139°59'0 0.0
2018-Feb-13 19:12N 35°41' E 139°59'0 0.0
2018-Feb-13 16:48N 35°41' E 139°59'0 0.0
2018-Feb-13 16:26N 35°41' E 139°59'0 0.0
2018-Feb-13 16:00N 35°41' E 139°59'0 0.0
2018-Feb-13 15:28N 35°41' E 139°59'0 0.0
2018-Feb-13 15:00N 35°41' E 139°59'0 0.0
2018-Feb-13 14:03N 35°41' E 139°59'0 0.0
2018-Feb-13 13:52N 35°41' E 139°59'0 0.0
2018-Feb-13 11:55N 35°41' E 139°59'0 0.0
2018-Feb-13 11:19N 35°41' E 139°59'0 0.0
2018-Feb-13 10:33N 35°41' E 139°59'0 0.0
2018-Feb-13 10:25N 35°41' E 139°59'0 0.0
2018-Feb-13 09:57N 35°41' E 139°59'0 0.0
2018-Feb-13 09:11N 35°41' E 139°59'0 0.0
2018-Feb-13 08:33N 35°41' E 139°59'0 0.0
2018-Feb-13 08:14N 35°41' E 139°59'0 0.0
2018-Feb-13 07:56N 35°41' E 139°59'0 0.0
2018-Feb-13 06:34N 35°41' E 139°59'0 0.0
2018-Feb-13 06:29N 35°41' E 139°59'0 0.0
2018-Feb-13 05:36N 35°41' E 139°59'0 0.0
2018-Feb-13 05:13N 35°41' E 139°59'0 0.0
2018-Feb-13 04:57N 35°41' E 139°59'10 5.5
2018-Feb-13 03:10N 35°32' E 139°54'211.3
2018-Feb-13 02:57N 35°30' E 139°52'511.3
2018-Feb-13 02:30N 35°26' E 139°48'611.0
2018-Feb-13 02:00N 35°21' E 139°45'5 9.8
2018-Feb-13 01:30N 35°16' E 139°46'510.3
2018-Feb-13 00:59N 35°11' E 139°47'510.4
2018-Feb-13 00:30N 35°06' E 139°44'510.8
2018-Feb-13 00:00N 35°03' E 139°39'1411.9
2018-Feb-12 22:49N 34°55' E 139°25'412.5
2018-Feb-12 22:28N 34°52' E 139°21'612.6
2018-Feb-12 21:59N 34°48' E 139°15'612.1
2018-Feb-12 21:29N 34°44' E 139°10'612.0
2018-Feb-12 21:00N 34°40' E 139°05'510.3
2018-Feb-12 20:30N 34°37' E 138°60'5 9.8
2018-Feb-12 19:59N 34°35' E 138°54'811.6
2018-Feb-12 19:16N 34°35' E 138°44'511.2
2018-Feb-12 18:52N 34°35' E 138°39'511.1
2018-Feb-12 18:27N 34°34' E 138°33'510.8
2018-Feb-12 17:58N 34°34' E 138°27'610.5
2018-Feb-12 17:25N 34°34' E 138°20'167 9.4
2018-Feb-11 23:40N 33°52' E 135°04'311.2
2018-Feb-11 23:26N 33°54' E 135°03'511.3
2018-Feb-11 23:00N 33°59' E 135°03'611.0
2018-Feb-11 22:29N 34°05' E 135°03'510.6
2018-Feb-11 22:00N 34°10' E 135°03'510.8
2018-Feb-11 21:30N 34°15' E 135°03'510.1
2018-Feb-11 21:00N 34°20' E 135°05'5 9.7
2018-Feb-11 20:30N 34°24' E 135°08'510.0
2018-Feb-11 20:00N 34°27' E 135°13'510.2
2018-Feb-11 19:30N 34°31' E 135°17'510.0
2018-Feb-11 19:00N 34°32' E 135°23'2 4.0
2018-Feb-11 18:30N 34°31' E 135°24'  
2018-Feb-09 10:30N 34°31' E 135°24'9 1.2
2018-Feb-09 03:00N 34°40' E 135°26'0 0.0
2018-Feb-09 02:00N 34°40' E 135°26'0 0.0
2018-Feb-09 01:00N 34°40' E 135°26'0 0.0
2018-Feb-09 00:30N 34°40' E 135°26'3 6.7
2018-Feb-09 00:00N 34°38' E 135°22'1010.0
2018-Feb-08 23:00N 34°35' E 135°11'510.2
2018-Feb-08 22:30N 34°35' E 135°04'128 9.1
2018-Feb-08 08:30N 34°14' E 132°32'1 0.2
2018-Feb-08 05:30N 34°14' E 132°32'0 0.2
2018-Feb-08 04:00N 34°14' E 132°33'0 0.2
2018-Feb-08 03:00N 34°14' E 132°33'  
Track history (hours):
 
Tides and Currents Weather Stations Pressure Air Temp Water Temp Dewpoint Dewpoint Depression Visibility Wind Speed Wind Dir Waves Ship Positions

Koeimaru

Last reported at 2018-Feb-18 02:20 UTC. Time now 2018-Feb-19 07:51 UTC.
Position N 33°37' E 130°03'.

Length 64 m; draft 4 m.

Type: Cargo ship. MMSI: 431003512.

Date/timePositionNaut miles runAvg speedWind from/ knotsBaromVisibWave heightAir tempDewpointWater temp
2018-Feb-18 02:20N 33°37' E 130°03'510.8
2018-Feb-18 01:51N 33°40' E 130°09'411.0
2018-Feb-18 01:30N 33°42' E 130°12'611.3
2018-Feb-18 01:00N 33°46' E 130°17'611.2
2018-Feb-18 00:30N 33°50' E 130°23'611.1
2018-Feb-18 00:01N 33°53' E 130°27'611.1
2018-Feb-17 23:30N 33°57' E 130°33'611.9
2018-Feb-17 23:00N 33°57' E 130°40'611.8
2018-Feb-17 22:30N 33°58' E 130°47'510.5
2018-Feb-17 22:00N 33°56' E 130°53'3 5.7
2018-Feb-17 21:30N 33°56' E 130°56'4 7.5
2018-Feb-17 21:01N 33°59' E 130°60'5 9.7
2018-Feb-17 20:31N 33°57' E 131°05'1 3.0
2018-Feb-17 20:00N 33°56' E 131°07'1 2.5
2018-Feb-17 19:31N 33°55' E 131°08'4 7.2
2018-Feb-17 19:00N 33°53' E 131°12'4 8.6
2018-Feb-17 18:31N 33°52' E 131°16'510.4
2018-Feb-17 18:01N 33°51' E 131°23'510.7
2018-Feb-17 17:30N 33°50' E 131°29'510.6
2018-Feb-17 17:00N 33°49' E 131°35'510.3
2018-Feb-17 16:30N 33°48' E 131°41'1710.6
2018-Feb-17 14:55N 33°46' E 132°01'1211.2
2018-Feb-17 13:52N 33°50' E 132°14'411.0
2018-Feb-17 13:30N 33°50' E 132°19'17 9.7
2018-Feb-17 11:42N 34°00' E 132°36'310.4
2018-Feb-17 11:24N 34°02' E 132°39'92 8.7
2018-Feb-17 00:49N 34°18' E 134°29'2910.0
2018-Feb-16 21:57N 33°59' E 134°55'125 5.6
2018-Feb-15 23:30N 34°44' E 137°16'711.5
2018-Feb-15 22:55N 34°42' E 137°09'87 8.2
2018-Feb-15 12:20N 34°36' E 138°54'4 8.3
2018-Feb-15 11:48N 34°38' E 138°59'4 9.6
2018-Feb-15 11:25N 34°41' E 139°01'25 9.5
2018-Feb-15 08:48N 34°60' E 139°21'11 9.3
2018-Feb-15 07:36N 35°05' E 139°34'110.6
2018-Feb-15 07:30N 35°05' E 139°35'611.0
2018-Feb-15 06:59N 35°07' E 139°41'510.8
2018-Feb-15 06:30N 35°11' E 139°45'5 9.6
2018-Feb-15 06:00N 35°16' E 139°45'510.8
2018-Feb-15 05:30N 35°21' E 139°41'2 3.9
2018-Feb-15 05:00N 35°22' E 139°40'0 0.0
2018-Feb-15 04:30N 35°22' E 139°40'0 0.0
2018-Feb-15 04:00N 35°22' E 139°40'0 0.0
2018-Feb-15 03:30N 35°22' E 139°40'0 0.0
2018-Feb-15 03:00N 35°22' E 139°40'0 0.0
2018-Feb-15 02:30N 35°22' E 139°40'0 0.0
2018-Feb-15 02:00N 35°22' E 139°40'0 0.0
2018-Feb-15 01:30N 35°22' E 139°40'0 0.0
2018-Feb-15 01:00N 35°22' E 139°40'0 0.0
2018-Feb-15 00:30N 35°22' E 139°40'0 0.0
2018-Feb-15 00:01N 35°22' E 139°40'0 0.0
2018-Feb-14 23:30N 35°22' E 139°40'0 0.1
2018-Feb-14 23:00N 35°22' E 139°40'4 9.0
2018-Feb-14 22:31N 35°25' E 139°44'611.8
2018-Feb-14 22:01N 35°29' E 139°49'811.3
2018-Feb-14 21:18N 35°35' E 139°56'411.2
2018-Feb-14 20:58N 35°38' E 139°59'0 0.0
2018-Feb-14 05:29N 35°39' E 139°58'1 1.5
2018-Feb-14 05:00N 35°38' E 139°59'0 0.0
2018-Feb-14 04:30N 35°38' E 139°59'0 0.0
2018-Feb-14 04:00N 35°38' E 139°59'0 0.0
2018-Feb-14 03:28N 35°38' E 139°59'0 0.0
2018-Feb-14 02:57N 35°38' E 139°59'0 0.1
2018-Feb-14 02:28N 35°38' E 139°58'0 0.0
2018-Feb-14 01:55N 35°38' E 139°58'0 0.0
2018-Feb-14 00:36N 35°38' E 139°58'0 0.5
2018-Feb-14 00:30N 35°38' E 139°59'3 5.5
2018-Feb-13 23:59N 35°41' E 139°59'0 0.2
2018-Feb-13 23:26N 35°41' E 139°59'0 0.0
2018-Feb-13 22:52N 35°41' E 139°59'0 0.0
2018-Feb-13 22:29N 35°41' E 139°59'0 0.0
2018-Feb-13 21:53N 35°41' E 139°59'0 0.0
2018-Feb-13 21:17N 35°41' E 139°59'0 0.0
2018-Feb-13 19:12N 35°41' E 139°59'0 0.0
2018-Feb-13 16:48N 35°41' E 139°59'0 0.0
2018-Feb-13 16:26N 35°41' E 139°59'0 0.0
2018-Feb-13 16:00N 35°41' E 139°59'0 0.0
2018-Feb-13 15:28N 35°41' E 139°59'0 0.0
2018-Feb-13 15:00N 35°41' E 139°59'0 0.0
2018-Feb-13 14:03N 35°41' E 139°59'0 0.0
2018-Feb-13 13:52N 35°41' E 139°59'0 0.0
2018-Feb-13 11:55N 35°41' E 139°59'0 0.0
2018-Feb-13 11:19N 35°41' E 139°59'0 0.0
2018-Feb-13 10:33N 35°41' E 139°59'0 0.0
2018-Feb-13 10:25N 35°41' E 139°59'0 0.0
2018-Feb-13 09:57N 35°41' E 139°59'0 0.0
2018-Feb-13 09:11N 35°41' E 139°59'0 0.0
2018-Feb-13 08:33N 35°41' E 139°59'0 0.0
2018-Feb-13 08:14N 35°41' E 139°59'0 0.0
2018-Feb-13 07:56N 35°41' E 139°59'0 0.0
2018-Feb-13 06:34N 35°41' E 139°59'0 0.0
2018-Feb-13 06:29N 35°41' E 139°59'0 0.0
2018-Feb-13 05:36N 35°41' E 139°59'0 0.0
2018-Feb-13 05:13N 35°41' E 139°59'0 0.0
2018-Feb-13 04:57N 35°41' E 139°59'10 5.5
2018-Feb-13 03:10N 35°32' E 139°54'211.3
2018-Feb-13 02:57N 35°30' E 139°52'511.3
2018-Feb-13 02:30N 35°26' E 139°48'611.0
2018-Feb-13 02:00N 35°21' E 139°45'5 9.8
2018-Feb-13 01:30N 35°16' E 139°46'510.3
2018-Feb-13 00:59N 35°11' E 139°47'510.4
2018-Feb-13 00:30N 35°06' E 139°44'510.8
2018-Feb-13 00:00N 35°03' E 139°39'1411.9
2018-Feb-12 22:49N 34°55' E 139°25'412.5
2018-Feb-12 22:28N 34°52' E 139°21'612.6
2018-Feb-12 21:59N 34°48' E 139°15'612.1
2018-Feb-12 21:29N 34°44' E 139°10'612.0
2018-Feb-12 21:00N 34°40' E 139°05'510.3
2018-Feb-12 20:30N 34°37' E 138°60'5 9.8
2018-Feb-12 19:59N 34°35' E 138°54'811.6
2018-Feb-12 19:16N 34°35' E 138°44'511.2
2018-Feb-12 18:52N 34°35' E 138°39'511.1
2018-Feb-12 18:27N 34°34' E 138°33'510.8
2018-Feb-12 17:58N 34°34' E 138°27'610.5
2018-Feb-12 17:25N 34°34' E 138°20'167 9.4
2018-Feb-11 23:40N 33°52' E 135°04'311.2
2018-Feb-11 23:26N 33°54' E 135°03'511.3
2018-Feb-11 23:00N 33°59' E 135°03'611.0
2018-Feb-11 22:29N 34°05' E 135°03'510.6
2018-Feb-11 22:00N 34°10' E 135°03'510.8
2018-Feb-11 21:30N 34°15' E 135°03'510.1
2018-Feb-11 21:00N 34°20' E 135°05'5 9.7
2018-Feb-11 20:30N 34°24' E 135°08'510.0
2018-Feb-11 20:00N 34°27' E 135°13'510.2
2018-Feb-11 19:30N 34°31' E 135°17'510.0
2018-Feb-11 19:00N 34°32' E 135°23'2 4.0
2018-Feb-11 18:30N 34°31' E 135°24'  
2018-Feb-09 10:30N 34°31' E 135°24'9 1.2
2018-Feb-09 03:00N 34°40' E 135°26'0 0.0
2018-Feb-09 02:00N 34°40' E 135°26'0 0.0
2018-Feb-09 01:00N 34°40' E 135°26'0 0.0
2018-Feb-09 00:30N 34°40' E 135°26'3 6.7
2018-Feb-09 00:00N 34°38' E 135°22'1010.0
2018-Feb-08 23:00N 34°35' E 135°11'510.2
2018-Feb-08 22:30N 34°35' E 135°04'128 9.1
2018-Feb-08 08:30N 34°14' E 132°32'1 0.2
2018-Feb-08 05:30N 34°14' E 132°32'0 0.2
2018-Feb-08 04:00N 34°14' E 132°33'0 0.2
2018-Feb-08 03:00N 34°14' E 132°33'  

Dump ship's entire track history